Time;durP1;ratioP1;P1;durP2;ratioP2;P2;SDS_P1;SDS_P2;PMS_P1;PMS_P2;Temp;Humidity;BMP_temperature;BMP_pressure;BME280_temperature;BME280_humidity;BME280_pressure;Samples;Min_cycle;Max_cycle;Signal;HPM_P1;HPM_P2
2022/01/29 00:00:56;;;;;;;81.90;42.60;;;;;;;5.38;93.56;102891.75;5026727;28;20032;-63
2022/01/29 00:03:25;;;;;;;88.17;42.67;;;;;;;5.39;93.25;102874.16;5028921;28;20052;-63
2022/01/29 00:05:53;;;;;;;86.70;41.80;;;;;;;5.40;93.59;102875.84;5029196;28;20548;-63
2022/01/29 00:08:19;;;;;;;82.43;40.07;;;;;;;5.43;93.39;102873.06;5007395;28;20874;-64
2022/01/29 00:10:47;;;;;;;86.37;42.40;;;;;;;5.45;93.35;102873.81;5027511;28;20488;-63
2022/01/29 00:13:12;;;;;;;81.97;40.10;;;;;;;5.44;93.26;102880.88;5027910;28;20025;-63
2022/01/29 00:15:38;;;;;;;86.63;41.37;;;;;;;5.45;93.33;102879.06;5028488;28;20021;-63
2022/01/29 00:18:03;;;;;;;72.77;40.93;;;;;;;5.46;93.66;102881.63;5028629;28;20053;-63
2022/01/29 00:20:28;;;;;;;85.77;41.47;;;;;;;5.47;93.41;102864.88;5026907;28;20022;-63
2022/01/29 00:22:53;;;;;;;83.60;42.40;;;;;;;5.48;93.15;102869.22;5028304;28;20355;-63
2022/01/29 00:25:19;;;;;;;78.57;43.17;;;;;;;5.48;93.27;102863.94;5027645;28;20158;-63
2022/01/29 00:27:44;;;;;;;85.50;43.13;;;;;;;5.50;93.63;102855.97;5028048;28;20026;-63
2022/01/29 00:30:14;;;;;;;83.80;43.17;;;;;;;5.52;93.52;102856.72;5027767;28;20033;-63
2022/01/29 00:32:40;;;;;;;81.67;41.20;;;;;;;5.52;93.40;102849.69;5026685;28;20053;-63
2022/01/29 00:35:06;;;;;;;79.13;41.83;;;;;;;5.52;93.23;102838.28;5028236;28;20057;-63
2022/01/29 00:37:32;;;;;;;77.17;41.30;;;;;;;5.52;93.61;102859.38;5028420;28;20021;-63
2022/01/29 00:39:57;;;;;;;77.80;40.47;;;;;;;5.55;93.36;102851.28;5027267;28;20036;-63
2022/01/29 00:42:23;;;;;;;77.30;42.17;;;;;;;5.57;93.12;102849.41;5027157;28;20074;-63
2022/01/29 00:44:49;;;;;;;74.83;41.03;;;;;;;5.58;93.28;102846.69;5028103;28;20022;-63
2022/01/29 00:47:14;;;;;;;83.60;41.00;;;;;;;5.59;93.36;102839.63;5027832;28;20032;-63
2022/01/29 00:49:40;;;;;;;75.33;40.97;;;;;;;5.59;92.56;102844.91;5025563;28;20040;-63
2022/01/29 00:52:05;;;;;;;77.60;41.20;;;;;;;5.59;92.98;102842.25;5027489;28;20020;-63
2022/01/29 00:54:30;;;;;;;81.07;42.93;;;;;;;5.59;93.04;102829.06;5026577;28;20506;-63
2022/01/29 00:56:56;;;;;;;80.50;41.43;;;;;;;5.56;93.31;102831.91;5025522;28;20033;-63
2022/01/29 00:59:22;;;;;;;84.10;42.37;;;;;;;5.54;93.20;102815.31;5025453;28;20114;-63
2022/01/29 01:01:48;;;;;;;80.70;42.40;;;;;;;5.51;93.95;102816.34;5023657;28;20022;-63
2022/01/29 01:04:13;;;;;;;85.93;42.43;;;;;;;5.49;93.97;102797.16;5027123;28;20029;-63
2022/01/29 01:06:38;;;;;;;84.60;43.60;;;;;;;5.51;94.32;102797.06;5027478;28;20037;-63
2022/01/29 01:09:03;;;;;;;83.70;43.53;;;;;;;5.50;94.27;102800.63;5026541;28;20497;-63
2022/01/29 01:11:29;;;;;;;83.97;43.77;;;;;;;5.48;94.35;102792.78;5025770;28;20041;-63
2022/01/29 01:13:54;;;;;;;84.60;43.57;;;;;;;5.49;94.39;102796.28;5026096;28;20044;-63
2022/01/29 01:16:19;;;;;;;89.17;45.37;;;;;;;5.50;94.58;102784.81;5027637;28;20497;-63
2022/01/29 01:18:45;;;;;;;82.03;42.77;;;;;;;5.50;94.84;102769.88;5026133;28;20057;-63
2022/01/29 01:21:10;;;;;;;84.07;43.07;;;;;;;5.49;94.57;102764.66;5027266;28;20029;-63
2022/01/29 01:23:35;;;;;;;84.27;44.33;;;;;;;5.48;94.71;102762.97;5026510;28;20029;-63
2022/01/29 01:26:02;;;;;;;92.00;45.57;;;;;;;5.46;94.93;102751.66;5026315;28;20039;-63
2022/01/29 01:28:28;;;;;;;87.67;45.93;;;;;;;5.43;95.14;102755.34;5027502;28;20100;-63
2022/01/29 01:30:53;;;;;;;94.13;44.30;;;;;;;5.43;95.83;102746.56;5019711;28;20164;-63
2022/01/29 01:33:18;;;;;;;89.17;44.40;;;;;;;5.44;95.96;102740.38;5026813;28;20040;-63
2022/01/29 01:35:48;;;;;;;90.00;45.50;;;;;;;5.46;95.63;102735.84;5026504;28;20030;-63
2022/01/29 01:38:19;;;;;;;94.40;46.30;;;;;;;5.47;95.96;102738.41;5026085;28;20496;-63
2022/01/29 01:40:50;;;;;;;91.43;46.10;;;;;;;5.47;96.26;102751.56;5026693;28;20035;-63
2022/01/29 01:43:15;;;;;;;93.40;46.97;;;;;;;5.45;96.04;102724.47;5026336;28;20029;-63
2022/01/29 01:45:40;;;;;;;94.17;48.93;;;;;;;5.43;96.34;102738.66;5027302;28;20410;-63
2022/01/29 01:48:06;;;;;;;99.17;47.93;;;;;;;5.38;96.54;102722.28;5027082;28;20459;-63
2022/01/29 01:50:33;;;;;;;97.37;49.37;;;;;;;5.33;96.93;102721.72;5025966;28;20033;-63
2022/01/29 01:52:59;;;;;;;111.17;53.43;;;;;;;5.29;97.37;102718.44;5025989;28;20044;-63
2022/01/29 01:55:25;;;;;;;112.77;50.20;;;;;;;5.25;97.45;102717.75;5026935;28;20397;-63
2022/01/29 01:57:50;;;;;;;111.87;52.17;;;;;;;5.24;97.78;102728.38;5026591;28;20092;-63
2022/01/29 02:00:16;;;;;;;112.83;51.73;;;;;;;5.23;97.80;102714.38;5026355;28;20207;-63
2022/01/29 02:02:41;;;;;;;114.70;54.53;;;;;;;5.22;98.38;102703.94;5026007;28;20036;-63
2022/01/29 02:05:08;;;;;;;117.30;53.57;;;;;;;5.21;98.42;102710.97;5027056;28;20021;-63
2022/01/29 02:07:33;;;;;;;117.97;54.40;;;;;;;5.19;98.99;102704.94;5033052;28;20022;-63
2022/01/29 02:09:58;;;;;;;116.23;54.00;;;;;;;5.19;99.24;102702.28;5032024;28;20558;-63
2022/01/29 02:12:27;;;;;;;116.93;56.40;;;;;;;5.19;98.97;102702.28;5033343;28;22272;-63
2022/01/29 02:14:53;;;;;;;111.45;51.85;;;;;;;5.19;99.18;102712.81;5030139;28;20033;-63
2022/01/29 02:17:18;;;;;;;121.47;53.87;;;;;;;5.18;99.70;102697.97;5033531;28;20029;-63
2022/01/29 02:19:44;;;;;;;123.70;57.30;;;;;;;5.16;100.00;102696.34;5031352;28;20079;-63
2022/01/29 02:22:09;;;;;;;122.37;57.57;;;;;;;5.16;100.00;102697.22;5033016;28;20033;-63
2022/01/29 02:24:36;;;;;;;123.37;56.83;;;;;;;5.14;100.00;102687.69;5032971;28;20029;-63
2022/01/29 02:27:01;;;;;;;125.23;58.33;;;;;;;5.11;100.00;102694.00;5033527;28;20392;-63
2022/01/29 02:29:26;;;;;;;130.90;57.43;;;;;;;5.10;100.00;102689.69;5030858;28;20022;-63
2022/01/29 02:31:57;;;;;;;134.03;58.93;;;;;;;5.09;100.00;102681.88;5033358;28;20025;-63
2022/01/29 02:34:23;;;;;;;136.87;60.07;;;;;;;5.08;100.00;102678.38;5031615;28;20075;-62
2022/01/29 02:36:50;;;;;;;138.03;58.63;;;;;;;5.08;100.00;102675.75;5033125;28;20032;-63
2022/01/29 02:39:18;;;;;;;140.03;60.47;;;;;;;5.09;100.00;102673.97;5031259;28;20021;-63
2022/01/29 02:41:44;;;;;;;141.53;60.93;;;;;;;5.09;100.00;102666.06;5033020;28;20029;-63
2022/01/29 02:44:17;;;;;;;130.37;56.60;;;;;;;5.09;100.00;102655.53;5030773;28;20615;-63
2022/01/29 02:46:57;;;;;;;143.90;58.23;;;;;;;5.10;100.00;102663.34;5030514;28;20017;-63
2022/01/29 02:49:26;;;;;;;;;;;;;;;5.12;100.00;102663.25;5031891;28;20029;-63
2022/01/29 02:51:57;;;;;;;142.85;57.67;;;;;;;5.12;100.00;102660.63;5032989;28;20380;-63
2022/01/29 02:54:24;;;;;;;145.77;58.07;;;;;;;5.13;100.00;102662.31;5033027;28;20812;-63
2022/01/29 02:56:49;;;;;;;136.50;57.90;;;;;;;5.13;100.00;102664.94;5032712;28;20025;-63
2022/01/29 02:59:15;;;;;;;142.30;57.73;;;;;;;5.13;100.00;102652.63;5032440;28;20035;-63
2022/01/29 03:01:41;;;;;;;147.73;58.37;;;;;;;5.14;100.00;102664.84;5032323;28;20108;-64
2022/01/29 03:04:07;;;;;;;144.43;61.20;;;;;;;5.16;100.00;102659.50;5032959;28;20079;-63
2022/01/29 03:06:33;;;;;;;140.20;58.13;;;;;;;5.18;100.00;102653.19;5032434;28;20037;-63
2022/01/29 03:08:59;;;;;;;132.80;57.60;;;;;;;5.18;100.00;102641.81;5032441;28;20040;-64
2022/01/29 03:11:24;;;;;;;137.20;57.53;;;;;;;5.18;100.00;102644.44;5031868;28;20068;-64
2022/01/29 03:13:50;;;;;;;139.13;57.57;;;;;;;5.20;100.00;102634.66;5032900;28;20087;-63
2022/01/29 03:16:16;;;;;;;135.40;54.63;;;;;;;5.19;100.00;102628.53;5031660;28;20034;-63
2022/01/29 03:18:42;;;;;;;135.57;56.07;;;;;;;5.18;100.00;102624.22;5027930;28;20032;-63
2022/01/29 03:21:07;;;;;;;129.40;56.60;;;;;;;5.21;100.00;102620.59;5029067;28;20030;-63
2022/01/29 03:23:33;;;;;;;135.77;56.03;;;;;;;5.24;100.00;102613.34;5029529;28;20050;-63
2022/01/29 03:26:00;;;;;;;135.00;55.77;;;;;;;5.24;100.00;102615.97;5029563;28;20892;-63
2022/01/29 03:28:25;;;;;;;141.53;56.27;;;;;;;5.26;100.00;102626.41;5029748;28;20056;-64
2022/01/29 03:30:50;;;;;;;139.70;56.50;;;;;;;5.27;100.00;102617.56;5028320;28;20521;-64
2022/01/29 03:33:15;;;;;;;140.87;55.80;;;;;;;5.26;100.00;102613.25;5029125;28;20116;-64
2022/01/29 03:35:41;;;;;;;148.23;57.97;;;;;;;5.25;100.00;102607.13;5029209;28;20033;-63
2022/01/29 03:38:06;;;;;;;149.57;57.80;;;;;;;5.27;100.00;102613.16;5029085;28;20035;-64
2022/01/29 03:40:33;;;;;;;151.77;57.50;;;;;;;5.27;100.00;102610.53;5028402;28;20029;-64
2022/01/29 03:43:08;;;;;;;155.00;59.37;;;;;;;5.27;100.00;102592.09;5028794;28;20025;-63
2022/01/29 03:45:34;;;;;;;152.93;55.53;;;;;;;5.28;100.00;102612.22;5027626;28;20033;-63
2022/01/29 03:47:59;;;;;;;158.27;58.43;;;;;;;5.28;100.00;102596.41;5028673;28;20037;-64
2022/01/29 03:50:24;;;;;;;166.30;60.23;;;;;;;5.29;100.00;102598.09;5024865;28;20031;-63
2022/01/29 03:52:50;;;;;;;155.63;61.33;;;;;;;5.29;100.00;102608.63;5029128;28;20493;-63
2022/01/29 03:55:16;;;;;;;162.53;60.63;;;;;;;5.29;100.00;102594.63;5028325;28;20539;-64
2022/01/29 03:57:41;;;;;;;156.07;57.57;;;;;;;5.29;100.00;102592.00;5026282;28;20108;-63
2022/01/29 04:00:07;;;;;;;166.37;59.77;;;;;;;5.32;100.00;102601.50;5026867;28;20047;-64
2022/01/29 04:02:32;;;;;;;163.53;58.30;;;;;;;5.31;100.00;102587.47;5028998;28;20029;-63
2022/01/29 04:04:57;;;;;;;163.90;59.40;;;;;;;5.32;100.00;102597.06;5027986;28;20025;-64
2022/01/29 04:07:23;;;;;;;164.33;59.97;;;;;;;5.35;100.00;102601.28;5028324;28;20469;-64
2022/01/29 04:09:50;;;;;;;164.00;57.87;;;;;;;5.38;100.00;102595.84;5027350;28;20021;-64
2022/01/29 04:12:16;;;;;;;157.47;58.00;;;;;;;5.42;100.00;102607.88;5028766;28;20018;-64
2022/01/29 04:14:42;;;;;;;160.60;58.23;;;;;;;5.44;100.00;102590.19;5027478;28;20056;-63
2022/01/29 04:17:07;;;;;;;159.77;59.17;;;;;;;5.46;100.00;102580.41;5028269;28;20030;-63
2022/01/29 04:19:34;;;;;;;159.17;60.27;;;;;;;5.49;100.00;102581.09;5027191;28;20033;-64
2022/01/29 04:22:00;;;;;;;154.23;57.47;;;;;;;5.52;100.00;102577.41;5027779;28;20068;-64
2022/01/29 04:24:26;;;;;;;153.33;58.43;;;;;;;5.53;100.00;102572.03;5025697;28;20556;-63
2022/01/29 04:26:51;;;;;;;149.13;57.37;;;;;;;5.56;100.00;102571.00;5027029;28;20034;-64
2022/01/29 04:29:17;;;;;;;141.70;53.70;;;;;;;5.56;100.00;102563.09;5026439;28;20064;-63
2022/01/29 04:34:07;;;;;;;134.50;53.50;;;;;;;5.67;100.00;102572.94;5027493;28;20043;-63
2022/01/29 04:36:33;;;;;;;143.63;55.47;;;;;;;5.71;100.00;102571.81;5027035;28;20044;-64
2022/01/29 04:38:58;;;;;;;130.33;51.53;;;;;;;5.74;100.00;102561.06;5026802;28;20188;-63
2022/01/29 04:41:23;;;;;;;128.33;52.67;;;;;;;5.78;100.00;102566.09;5024929;28;20037;-63
2022/01/29 04:43:49;;;;;;;135.13;52.30;;;;;;;5.81;100.00;102547.44;5027984;28;20115;-63
2022/01/29 04:46:14;;;;;;;125.47;51.70;;;;;;;5.81;100.00;102549.22;5027952;28;20116;-63
2022/01/29 04:48:39;;;;;;;118.73;50.77;;;;;;;5.86;100.00;102555.88;5025609;28;20029;-63
2022/01/29 04:51:05;;;;;;;119.80;50.93;;;;;;;5.86;100.00;102545.34;5027498;28;20071;-64
2022/01/29 04:53:30;;;;;;;118.43;49.73;;;;;;;5.96;100.00;102552.69;5027041;28;20025;-63
2022/01/29 04:55:55;;;;;;;114.00;49.33;;;;;;;5.97;100.00;102536.75;5028097;28;20077;-63
2022/01/29 04:58:20;;;;;;;110.63;47.27;;;;;;;5.99;100.00;102541.94;5023785;28;20111;-63
2022/01/29 05:00:46;;;;;;;114.67;49.70;;;;;;;6.01;100.00;102532.97;5026055;28;20025;-63
2022/01/29 05:03:13;;;;;;;118.73;48.43;;;;;;;6.05;100.00;102531.00;5027520;28;20033;-64
2022/01/29 05:05:41;;;;;;;114.80;48.70;;;;;;;6.08;100.00;102536.94;5028089;28;20029;-64
2022/01/29 05:08:06;;;;;;;110.37;46.73;;;;;;;6.11;100.00;102531.47;5027193;28;20420;-63
2022/01/29 05:10:33;;;;;;;117.03;51.23;;;;;;;6.14;100.00;102533.03;5026976;28;20492;-63
2022/01/29 05:13:02;;;;;;;117.67;48.83;;;;;;;6.17;100.00;102519.66;5026414;28;20033;-64
2022/01/29 05:29:10;;;;;;;113.70;51.77;;;;;;;6.30;100.00;102528.44;5025059;28;20036;-63
2022/01/29 05:31:36;;;;;;;118.77;49.50;;;;;;;6.35;100.00;102528.97;5027329;28;20029;-64
2022/01/29 05:34:01;;;;;;;114.67;50.40;;;;;;;6.36;100.00;102509.59;5025393;28;20394;-63
2022/01/29 05:36:26;;;;;;;115.53;51.23;;;;;;;6.39;100.00;102513.81;5027481;28;20021;-63
2022/01/29 05:38:52;;;;;;;114.87;51.40;;;;;;;6.42;100.00;102510.97;5023005;28;20025;-63
2022/01/29 05:41:18;;;;;;;107.90;48.83;;;;;;;6.42;100.00;102511.81;5025277;28;20067;-63
2022/01/29 05:43:43;;;;;;;117.10;51.63;;;;;;;6.44;100.00;102511.69;5026922;28;20036;-64
2022/01/29 05:46:14;;;;;;;106.53;48.27;;;;;;;6.46;100.00;102520.38;5026144;28;20381;-63
2022/01/29 05:48:40;;;;;;;110.33;51.63;;;;;;;6.48;100.00;102515.81;5022235;28;20029;-63
2022/01/29 05:51:06;;;;;;;112.03;52.23;;;;;;;6.51;100.00;102515.63;5026831;28;20492;-64
2022/01/29 05:53:31;;;;;;;108.60;50.27;;;;;;;6.53;100.00;102498.72;5023223;28;20021;-63
2022/01/29 05:55:57;;;;;;;102.90;45.97;;;;;;;6.57;100.00;102506.44;5027193;28;20025;-63
2022/01/29 05:58:22;;;;;;;111.87;51.53;;;;;;;6.61;100.00;102502.63;5025946;28;20485;-64
2022/01/29 06:00:47;;;;;;;114.77;51.37;;;;;;;6.63;100.00;102490.16;5025376;28;20021;-64
2022/01/29 06:03:13;;;;;;;105.90;51.00;;;;;;;6.66;100.00;102488.19;5025279;28;20033;-64
2022/01/29 06:05:38;;;;;;;107.80;50.53;;;;;;;6.70;100.00;102489.69;5027051;28;20251;-64
2022/01/29 06:08:04;;;;;;;106.70;50.43;;;;;;;6.72;100.00;102492.22;5026579;28;20033;-64
2022/01/29 06:10:30;;;;;;;105.13;50.43;;;;;;;6.73;100.00;102486.81;5024447;28;20485;-64
2022/01/29 06:13:10;;;;;;;106.97;52.13;;;;;;;6.77;100.00;102493.56;5025358;28;20117;-64
2022/01/29 06:15:42;;;;;;;103.00;50.87;;;;;;;6.80;100.00;102484.59;5026425;28;20028;-64
2022/01/29 06:18:15;;;;;;;93.47;47.47;;;;;;;6.86;100.00;102488.59;5026496;28;20026;-64
2022/01/29 06:20:41;;;;;;;93.73;48.03;;;;;;;6.86;100.00;102488.59;5022452;28;20022;-64
2022/01/29 06:23:07;;;;;;;95.63;48.13;;;;;;;6.85;100.00;102479.84;5022515;28;20084;-64
2022/01/29 06:25:32;;;;;;;95.67;50.70;;;;;;;6.90;100.00;102480.34;5025442;28;20021;-64
2022/01/29 06:27:57;;;;;;;99.97;47.83;;;;;;;6.92;100.00;102478.44;5024389;28;20168;-64
2022/01/29 06:30:24;;;;;;;92.67;49.17;;;;;;;6.98;100.00;102483.34;5022423;28;20037;-64
2022/01/29 06:32:49;;;;;;;95.10;44.53;;;;;;;7.03;100.00;102478.56;5025798;28;20542;-64
2022/01/29 06:35:14;;;;;;;86.73;46.40;;;;;;;7.03;100.00;102468.00;5027090;28;20030;-64
2022/01/29 06:37:40;;;;;;;92.10;47.87;;;;;;;7.06;100.00;102466.94;5024971;28;20104;-64
2022/01/29 06:40:06;;;;;;;72.53;41.67;;;;;;;7.10;100.00;102471.91;5025076;28;20497;-64
2022/01/29 06:42:31;;;;;;;87.10;46.77;;;;;;;7.13;100.00;102466.41;5026993;28;20060;-64
2022/01/29 06:44:57;;;;;;;74.77;43.70;;;;;;;7.17;100.00;102455.59;5024768;28;20083;-64
2022/01/29 06:47:22;;;;;;;83.00;43.93;;;;;;;7.17;100.00;102445.03;5027527;28;20565;-64
2022/01/29 06:49:47;;;;;;;79.20;43.40;;;;;;;7.20;100.00;102453.59;5026772;28;20026;-64
2022/01/29 06:52:13;;;;;;;72.60;44.33;;;;;;;7.23;100.00;102456.03;5027227;28;20075;-64
2022/01/29 06:54:38;;;;;;;75.47;42.60;;;;;;;7.27;100.00;102452.22;5031081;28;20092;-64
2022/01/29 06:57:04;;;;;;;67.33;39.63;;;;;;;7.30;100.00;102453.78;5030695;28;20021;-64
2022/01/29 06:59:29;;;;;;;72.53;38.53;;;;;;;7.32;100.00;102447.44;5028779;28;20489;-64
2022/01/29 07:01:54;;;;;;;64.10;37.47;;;;;;;7.34;100.00;102442.91;5029972;28;20088;-64
2022/01/29 07:04:19;;;;;;;62.90;36.60;;;;;;;7.35;100.00;102451.66;5030576;28;20040;-64
2022/01/29 07:06:45;;;;;;;69.70;39.40;;;;;;;7.32;100.00;102438.69;5029464;28;20029;-64
2022/01/29 07:09:10;;;;;;;72.10;39.80;;;;;;;7.27;100.00;102431.09;5029075;28;20037;-64
2022/01/29 07:11:35;;;;;;;68.40;39.63;;;;;;;7.32;100.00;102443.97;5030081;28;20045;-64
2022/01/29 07:14:04;;;;;;;73.77;42.07;;;;;;;7.31;100.00;102442.28;5030202;28;20176;-63
2022/01/29 07:16:34;;;;;;;75.70;40.30;;;;;;;7.32;100.00;102433.38;5029115;28;20036;-64
2022/01/29 07:19:00;;;;;;;76.50;43.43;;;;;;;7.32;100.00;102444.81;5025263;28;20113;-64
2022/01/29 07:21:25;;;;;;;76.80;41.33;;;;;;;7.31;100.00;102437.84;5027116;28;20028;-63
2022/01/29 07:23:51;;;;;;;77.10;39.47;;;;;;;7.30;100.00;102436.16;5031384;28;20029;-64
2022/01/29 07:26:16;;;;;;;77.30;41.27;;;;;;;7.30;100.00;102441.44;5030634;28;20101;-64
2022/01/29 07:28:41;;;;;;;72.63;37.30;;;;;;;7.28;100.00;102434.56;5028738;28;20087;-63
2022/01/29 07:31:07;;;;;;;86.93;43.53;;;;;;;7.30;100.00;102437.94;5030927;28;20026;-64
2022/01/29 07:33:33;;;;;;;86.73;42.60;;;;;;;7.31;100.00;102444.91;5030463;28;20025;-64
2022/01/29 07:35:58;;;;;;;87.57;44.67;;;;;;;7.27;100.00;102430.25;5031001;28;20504;-64
2022/01/29 07:38:24;;;;;;;84.03;43.03;;;;;;;7.30;100.00;102433.50;5030362;28;20025;-63
2022/01/29 07:40:50;;;;;;;83.30;43.30;;;;;;;7.31;100.00;102437.00;5029358;28;20033;-64
2022/01/29 07:43:15;;;;;;;89.83;44.50;;;;;;;7.34;100.00;102423.56;5030707;28;20030;-64
2022/01/29 07:45:40;;;;;;;87.30;42.60;;;;;;;7.34;100.00;102420.91;5031309;28;20040;-64
2022/01/29 07:48:05;;;;;;;79.40;42.77;;;;;;;7.34;100.00;102427.03;5031264;28;20025;-64
2022/01/29 07:50:31;;;;;;;82.40;43.63;;;;;;;7.39;100.00;102419.63;5029344;28;20031;-64
2022/01/29 07:52:59;;;;;;;79.20;41.73;;;;;;;7.40;100.00;102425.75;5027250;28;20029;-64
2022/01/29 07:55:26;;;;;;;83.83;43.40;;;;;;;7.37;100.00;102418.88;5030123;28;20099;-63
2022/01/29 07:57:52;;;;;;;84.00;42.33;;;;;;;7.44;100.00;102421.91;5030308;28;20454;-64
2022/01/29 08:00:17;;;;;;;88.83;43.17;;;;;;;7.45;100.00;102413.03;5028522;28;20065;-64
2022/01/29 08:02:43;;;;;;;82.70;42.20;;;;;;;7.44;100.00;102408.69;5030255;28;20104;-64
2022/01/29 08:05:08;;;;;;;87.33;45.33;;;;;;;7.47;100.00;102414.59;5030094;28;20021;-64
2022/01/29 08:07:34;;;;;;;86.77;43.50;;;;;;;7.47;100.00;102414.59;5030572;28;20036;-64
2022/01/29 08:09:59;;;;;;;94.60;45.07;;;;;;;7.46;100.00;102405.00;5029169;28;20025;-64
2022/01/29 08:12:24;;;;;;;87.43;43.83;;;;;;;7.51;100.00;102407.28;5029688;28;20393;-64
2022/01/29 08:14:49;;;;;;;88.13;44.03;;;;;;;7.50;100.00;102399.47;5030009;28;20053;-64
2022/01/29 08:17:15;;;;;;;84.00;43.77;;;;;;;7.49;100.00;102396.00;5030447;28;20029;-64
2022/01/29 08:19:40;;;;;;;88.13;43.97;;;;;;;7.52;100.00;102387.88;5028977;28;20512;-64
2022/01/29 08:22:05;;;;;;;90.70;43.03;;;;;;;7.54;100.00;102383.31;5029986;28;20120;-64
2022/01/29 08:24:31;;;;;;;85.20;44.43;;;;;;;7.58;100.00;102386.56;5027631;28;20035;-64
2022/01/29 08:26:56;;;;;;;79.93;44.33;;;;;;;7.59;100.00;102383.81;5032204;28;20065;-64
2022/01/29 08:29:21;;;;;;;76.88;44.10;;;;;;;7.63;100.00;102376.47;5029081;28;20034;-64
2022/01/29 08:31:46;;;;;;;78.60;43.57;;;;;;;7.60;100.00;102371.44;5029092;28;20056;-64
2022/01/29 08:34:12;;;;;;;77.07;43.90;;;;;;;7.70;100.00;102378.56;5029411;28;20608;-64
2022/01/29 08:36:37;;;;;;;72.75;41.72;;;;;;;7.73;100.00;102383.59;5029947;28;20032;-64
2022/01/29 08:39:03;;;;;;;70.07;42.15;;;;;;;7.76;100.00;102375.44;5028177;28;20036;-64
2022/01/29 08:41:28;;;;;;;71.25;43.15;;;;;;;7.76;100.00;102386.03;5029531;28;20540;-64
2022/01/29 08:43:54;;;;;;;66.57;41.53;;;;;;;7.77;100.00;102371.84;5029131;28;20052;-64
2022/01/29 08:46:19;;;;;;;67.43;39.97;;;;;;;7.74;100.00;102365.94;5029863;28;20057;-64
2022/01/29 08:48:44;;;;;;;64.22;40.17;;;;;;;7.81;100.00;102367.19;5028513;28;20107;-64
2022/01/29 08:51:09;;;;;;;61.87;39.77;;;;;;;7.84;100.00;102364.31;5029362;28;20044;-64
2022/01/29 08:53:35;;;;;;;62.03;39.88;;;;;;;7.89;100.00;102366.59;5029687;28;20036;-64
2022/01/29 08:56:01;;;;;;;62.65;39.13;;;;;;;7.91;100.00;102365.53;5029470;28;20096;-64
2022/01/29 08:58:26;;;;;;;60.55;38.90;;;;;;;7.93;100.00;102368.06;5028937;28;20527;-64
2022/01/29 09:00:51;;;;;;;57.28;38.03;;;;;;;7.95;100.00;102358.19;5028309;28;20041;-64
2022/01/29 09:03:18;;;;;;;54.58;37.05;;;;;;;7.98;100.00;102358.81;5028718;28;20602;-64
2022/01/29 09:05:46;;;;;;;59.67;36.30;;;;;;;7.99;100.00;102346.44;5029423;28;20255;-64
2022/01/29 09:08:13;;;;;;;51.43;35.67;;;;;;;8.06;100.00;102350.28;5027375;28;20044;-64
2022/01/29 09:10:38;;;;;;;55.00;36.08;;;;;;;8.11;100.00;102357.91;5027513;28;20033;-64
2022/01/29 09:13:04;;;;;;;54.40;34.35;;;;;;;8.12;100.00;102352.47;5028527;28;20499;-64
2022/01/29 09:15:29;;;;;;;52.72;35.58;;;;;;;8.13;100.00;102348.88;5027868;28;20044;-64
2022/01/29 09:17:54;;;;;;;51.88;35.50;;;;;;;8.15;100.00;102349.59;5028876;28;20056;-63
2022/01/29 09:20:20;;;;;;;48.92;34.70;;;;;;;8.22;100.00;102349.97;5026721;28;20033;-64
2022/01/29 09:22:45;;;;;;;52.80;34.55;;;;;;;8.23;100.00;102335.78;5025873;28;20468;-64
2022/01/29 09:25:10;;;;;;;46.22;33.90;;;;;;;8.28;100.00;102350.31;5027120;28;20034;-64
2022/01/29 09:27:36;;;;;;;46.88;33.78;;;;;;;8.31;100.00;102365.97;5027087;28;20489;-64
2022/01/29 09:30:03;;;;;;;48.25;33.22;;;;;;;8.36;100.00;102347.94;5026014;28;20021;-64
2022/01/29 09:32:30;;;;;;;44.55;32.13;;;;;;;8.37;100.00;102341.69;5026141;28;20037;-64
2022/01/29 09:34:55;;;;;;;44.60;31.40;;;;;;;8.36;100.00;102350.59;5025165;28;20374;-64
2022/01/29 09:37:20;;;;;;;42.53;29.48;;;;;;;8.40;100.00;102347.75;5025713;28;20033;-64
2022/01/29 09:39:46;;;;;;;41.28;30.85;;;;;;;8.44;100.00;102343.88;5024915;28;20095;-64
2022/01/29 09:42:11;;;;;;;41.45;30.63;;;;;;;8.46;99.98;102344.59;5026202;28;20416;-64
2022/01/29 09:44:36;;;;;;;39.00;28.70;;;;;;;8.47;99.75;102346.28;5027081;28;20466;-64
2022/01/29 09:47:04;;;;;;;38.30;28.10;;;;;;;8.50;99.73;102344.25;5026043;28;20064;-64
2022/01/29 09:49:32;;;;;;;38.60;27.63;;;;;;;8.52;99.33;102344.13;5026138;28;20037;-64
2022/01/29 09:51:57;;;;;;;40.70;27.42;;;;;;;8.53;99.04;102345.81;5026385;28;20029;-64
2022/01/29 09:54:22;;;;;;;33.20;23.90;;;;;;;8.59;98.97;102354.09;5024591;28;20136;-64
2022/01/29 09:56:47;;;;;;;33.15;25.13;;;;;;;8.60;98.69;102358.44;5026815;28;20056;-64
2022/01/29 09:59:13;;;;;;;30.95;23.10;;;;;;;8.65;98.79;102352.78;5025038;28;20469;-64
2022/01/29 10:01:38;;;;;;;31.92;22.27;;;;;;;8.67;98.45;102362.31;5026260;28;20175;-64
2022/01/29 10:04:05;;;;;;;30.35;20.52;;;;;;;8.73;98.27;102360.13;5026857;28;20400;-64
2022/01/29 10:06:31;;;;;;;27.27;18.40;;;;;;;8.79;98.35;102352.53;5024237;28;20459;-64
2022/01/29 10:08:57;;;;;;;21.45;15.65;;;;;;;8.86;97.69;102348.44;5020265;28;20112;-64
2022/01/29 10:11:24;;;;;;;23.27;15.52;;;;;;;8.93;97.35;102348.78;5025764;28;20025;-63
2022/01/29 10:13:50;;;;;;;22.35;16.20;;;;;;;8.96;97.39;102343.22;5027366;28;20126;-63
2022/01/29 10:16:21;;;;;;;23.35;16.20;;;;;;;9.01;97.04;102351.69;5025652;28;20473;-64
2022/01/29 10:19:17;;;;;;;20.85;14.50;;;;;;;9.05;96.74;102339.03;5026263;28;20033;-64
2022/01/29 10:21:47;;;;;;;17.38;12.38;;;;;;;9.07;96.30;102322.03;5032510;28;20045;-64
2022/01/29 10:24:15;;;;;;;14.70;10.35;;;;;;;9.22;95.46;102333.19;5026108;28;20103;-64
2022/01/29 10:26:42;;;;;;;13.45;11.07;;;;;;;9.28;95.21;102314.97;5029642;28;20037;-64
2022/01/29 10:29:14;;;;;;;13.23;11.00;;;;;;;9.33;94.51;102311.94;5030883;28;20021;-64
2022/01/29 10:31:44;;;;;;;14.60;10.32;;;;;;;9.39;94.38;102295.53;5031051;28;20072;-64
2022/01/29 10:34:21;;;;;;;;;;;;;;;9.41;93.90;102298.88;5032977;28;20053;-64
2022/01/29 10:37:15;;;;;;;13.45;10.07;;;;;;;9.41;93.89;102282.97;5028562;28;20293;-64
2022/01/29 10:39:43;;;;;;;12.30;8.88;;;;;;;9.46;93.63;102304.66;5030220;28;20481;-64
2022/01/29 10:42:18;;;;;;;13.70;8.45;;;;;;;9.56;92.84;102292.31;5030306;28;20034;-64
2022/01/29 10:44:46;;;;;;;11.77;7.28;;;;;;;9.60;92.39;102307.00;5028843;28;20159;-64
2022/01/29 10:47:12;;;;;;;12.43;8.23;;;;;;;9.65;92.20;102301.31;5030053;28;20044;-64
2022/01/29 10:49:44;;;;;;;12.45;7.45;;;;;;;9.65;92.02;102290.72;5031391;28;20033;-64
2022/01/29 10:52:12;;;;;;;12.10;6.97;;;;;;;9.68;91.67;102297.56;5028184;28;22403;-63
2022/01/29 10:54:42;;;;;;;8.57;6.13;;;;;;;9.71;91.41;102315.88;5023044;28;20393;-63
2022/01/29 10:57:11;;;;;;;10.52;5.13;;;;;;;9.78;90.69;102291.34;5031163;28;20033;-64
2022/01/29 10:59:48;;;;;;;8.82;5.03;;;;;;;9.83;90.51;102306.88;5032946;28;20033;-64
2022/01/29 11:02:14;;;;;;;6.43;4.43;;;;;;;9.85;90.03;102292.53;5017634;28;20513;-64
2022/01/29 11:04:41;;;;;;;5.97;4.30;;;;;;;9.93;89.91;102294.53;5019590;28;20037;-64
2022/01/29 11:07:23;;;;;;;6.60;4.40;;;;;;;9.94;89.57;102280.28;5027493;28;20017;-63
2022/01/29 11:09:52;;;;;;;6.47;4.32;;;;;;;9.94;89.33;102281.13;5015365;28;20029;-63
2022/01/29 11:12:23;;;;;;;4.78;3.35;;;;;;;9.97;88.67;102271.22;5022245;28;20040;-64
2022/01/29 11:14:52;;;;;;;5.70;3.55;;;;;;;10.02;88.60;102285.75;5029359;28;20056;-64
2022/01/29 11:17:18;;;;;;;4.82;3.17;;;;;;;10.02;88.15;102267.19;5032381;28;20255;-64
2022/01/29 11:19:45;;;;;;;5.65;2.92;;;;;;;10.01;87.81;102265.50;5031333;28;20032;-64
2022/01/29 11:22:12;;;;;;;3.25;2.78;;;;;;;10.08;87.21;102268.47;5033292;28;20384;-63